sensor_id;sensor_type;location;lat;lon;timestamp;P1;durP1;ratioP1;P2;durP2;ratioP2
67867;SDS011;54672;46.096;14.470;2024-03-22T00:01:39;14.50;;;7.38;;
67867;SDS011;54672;46.096;14.470;2024-03-22T00:04:04;22.33;;;7.43;;
67867;SDS011;54672;46.096;14.470;2024-03-22T00:06:31;19.33;;;8.20;;
67867;SDS011;54672;46.096;14.470;2024-03-22T00:08:56;18.65;;;7.35;;
67867;SDS011;54672;46.096;14.470;2024-03-22T00:11:22;26.35;;;7.60;;
67867;SDS011;54672;46.096;14.470;2024-03-22T00:13:48;21.67;;;9.10;;
67867;SDS011;54672;46.096;14.470;2024-03-22T00:16:13;24.30;;;9.35;;
67867;SDS011;54672;46.096;14.470;2024-03-22T00:18:39;36.75;;;10.07;;
67867;SDS011;54672;46.096;14.470;2024-03-22T00:21:04;20.90;;;8.73;;
67867;SDS011;54672;46.096;14.470;2024-03-22T00:23:29;33.38;;;8.40;;
67867;SDS011;54672;46.096;14.470;2024-03-22T00:25:55;22.08;;;8.95;;
67867;SDS011;54672;46.096;14.470;2024-03-22T00:28:21;23.63;;;8.95;;
67867;SDS011;54672;46.096;14.470;2024-03-22T00:30:46;29.98;;;9.70;;
67867;SDS011;54672;46.096;14.470;2024-03-22T00:33:12;29.40;;;9.70;;
67867;SDS011;54672;46.096;14.470;2024-03-22T00:35:37;19.00;;;8.85;;
67867;SDS011;54672;46.096;14.470;2024-03-22T00:38:03;29.33;;;8.38;;
67867;SDS011;54672;46.096;14.470;2024-03-22T00:40:28;28.10;;;8.70;;
67867;SDS011;54672;46.096;14.470;2024-03-22T00:42:54;24.88;;;7.53;;
67867;SDS011;54672;46.096;14.470;2024-03-22T00:45:19;60.90;;;9.25;;
67867;SDS011;54672;46.096;14.470;2024-03-22T00:47:45;59.33;;;8.95;;
67867;SDS011;54672;46.096;14.470;2024-03-22T00:50:10;26.33;;;8.68;;
67867;SDS011;54672;46.096;14.470;2024-03-22T00:52:37;49.63;;;9.40;;
67867;SDS011;54672;46.096;14.470;2024-03-22T00:55:03;22.58;;;8.48;;
67867;SDS011;54672;46.096;14.470;2024-03-22T00:57:29;30.27;;;8.32;;
67867;SDS011;54672;46.096;14.470;2024-03-22T00:59:54;30.35;;;8.95;;
67867;SDS011;54672;46.096;14.470;2024-03-22T01:02:20;73.20;;;10.27;;
67867;SDS011;54672;46.096;14.470;2024-03-22T01:04:47;26.63;;;7.72;;
67867;SDS011;54672;46.096;14.470;2024-03-22T01:07:12;24.20;;;6.63;;
67867;SDS011;54672;46.096;14.470;2024-03-22T01:09:38;18.75;;;5.97;;
67867;SDS011;54672;46.096;14.470;2024-03-22T01:12:03;22.67;;;6.97;;
67867;SDS011;54672;46.096;14.470;2024-03-22T01:14:31;17.40;;;6.82;;
67867;SDS011;54672;46.096;14.470;2024-03-22T01:16:56;19.20;;;6.97;;
67867;SDS011;54672;46.096;14.470;2024-03-22T01:19:22;14.02;;;7.15;;
67867;SDS011;54672;46.096;14.470;2024-03-22T01:21:48;24.95;;;7.85;;
67867;SDS011;54672;46.096;14.470;2024-03-22T01:24:14;25.35;;;7.75;;
67867;SDS011;54672;46.096;14.470;2024-03-22T01:26:39;18.10;;;7.95;;
67867;SDS011;54672;46.096;14.470;2024-03-22T01:29:04;25.75;;;8.75;;
67867;SDS011;54672;46.096;14.470;2024-03-22T01:31:31;33.80;;;8.90;;
67867;SDS011;54672;46.096;14.470;2024-03-22T01:33:56;49.58;;;9.20;;
67867;SDS011;54672;46.096;14.470;2024-03-22T01:36:22;48.53;;;9.13;;
67867;SDS011;54672;46.096;14.470;2024-03-22T01:38:47;23.00;;;8.70;;
67867;SDS011;54672;46.096;14.470;2024-03-22T01:41:13;34.20;;;9.43;;
67867;SDS011;54672;46.096;14.470;2024-03-22T01:43:38;22.23;;;7.72;;
67867;SDS011;54672;46.096;14.470;2024-03-22T01:46:04;18.77;;;8.10;;
67867;SDS011;54672;46.096;14.470;2024-03-22T01:48:31;17.25;;;7.15;;
67867;SDS011;54672;46.096;14.470;2024-03-22T01:50:57;15.48;;;6.80;;
67867;SDS011;54672;46.096;14.470;2024-03-22T01:53:22;14.57;;;6.20;;
67867;SDS011;54672;46.096;14.470;2024-03-22T01:55:48;10.93;;;5.10;;
67867;SDS011;54672;46.096;14.470;2024-03-22T01:58:14;12.90;;;5.22;;
67867;SDS011;54672;46.096;14.470;2024-03-22T02:00:39;21.23;;;7.28;;
67867;SDS011;54672;46.096;14.470;2024-03-22T02:03:05;37.47;;;8.45;;
67867;SDS011;54672;46.096;14.470;2024-03-22T02:05:31;29.17;;;7.75;;
67867;SDS011;54672;46.096;14.470;2024-03-22T02:07:57;40.85;;;7.20;;
67867;SDS011;54672;46.096;14.470;2024-03-22T02:10:22;31.17;;;7.38;;
67867;SDS011;54672;46.096;14.470;2024-03-22T02:12:47;55.13;;;8.90;;
67867;SDS011;54672;46.096;14.470;2024-03-22T02:15:13;40.53;;;9.25;;
67867;SDS011;54672;46.096;14.470;2024-03-22T02:17:39;47.15;;;9.48;;
67867;SDS011;54672;46.096;14.470;2024-03-22T02:20:04;21.65;;;7.78;;
67867;SDS011;54672;46.096;14.470;2024-03-22T02:22:31;17.42;;;7.53;;
67867;SDS011;54672;46.096;14.470;2024-03-22T02:24:56;20.00;;;7.15;;
67867;SDS011;54672;46.096;14.470;2024-03-22T02:27:22;28.23;;;7.47;;
67867;SDS011;54672;46.096;14.470;2024-03-22T02:29:48;27.52;;;8.07;;
67867;SDS011;54672;46.096;14.470;2024-03-22T02:32:13;30.73;;;8.50;;
67867;SDS011;54672;46.096;14.470;2024-03-22T02:34:38;25.67;;;8.52;;
67867;SDS011;54672;46.096;14.470;2024-03-22T02:37:04;31.90;;;9.13;;
67867;SDS011;54672;46.096;14.470;2024-03-22T02:39:29;27.65;;;8.13;;
67867;SDS011;54672;46.096;14.470;2024-03-22T02:41:55;32.35;;;8.60;;
67867;SDS011;54672;46.096;14.470;2024-03-22T02:44:21;42.25;;;8.85;;
67867;SDS011;54672;46.096;14.470;2024-03-22T02:46:46;21.35;;;8.55;;
67867;SDS011;54672;46.096;14.470;2024-03-22T02:49:12;29.30;;;7.20;;
67867;SDS011;54672;46.096;14.470;2024-03-22T02:51:38;37.10;;;8.15;;
67867;SDS011;54672;46.096;14.470;2024-03-22T02:54:04;29.40;;;7.90;;
67867;SDS011;54672;46.096;14.470;2024-03-22T02:56:30;32.67;;;8.05;;
67867;SDS011;54672;46.096;14.470;2024-03-22T02:58:55;26.70;;;8.32;;
67867;SDS011;54672;46.096;14.470;2024-03-22T03:01:21;32.75;;;8.95;;
67867;SDS011;54672;46.096;14.470;2024-03-22T03:03:46;35.28;;;8.68;;
67867;SDS011;54672;46.096;14.470;2024-03-22T03:06:11;28.52;;;8.38;;
67867;SDS011;54672;46.096;14.470;2024-03-22T03:08:41;18.55;;;6.90;;
67867;SDS011;54672;46.096;14.470;2024-03-22T03:11:07;17.58;;;6.72;;
67867;SDS011;54672;46.096;14.470;2024-03-22T03:13:32;15.68;;;6.43;;
67867;SDS011;54672;46.096;14.470;2024-03-22T03:15:57;16.02;;;6.65;;
67867;SDS011;54672;46.096;14.470;2024-03-22T03:18:23;17.50;;;6.82;;
67867;SDS011;54672;46.096;14.470;2024-03-22T03:20:49;26.30;;;8.48;;
67867;SDS011;54672;46.096;14.470;2024-03-22T03:23:14;19.65;;;7.05;;
67867;SDS011;54672;46.096;14.470;2024-03-22T03:25:40;17.67;;;6.80;;
67867;SDS011;54672;46.096;14.470;2024-03-22T03:28:05;17.75;;;6.97;;
67867;SDS011;54672;46.096;14.470;2024-03-22T03:30:33;16.90;;;6.93;;
67867;SDS011;54672;46.096;14.470;2024-03-22T03:33:00;20.90;;;7.00;;
67867;SDS011;54672;46.096;14.470;2024-03-22T03:35:25;19.38;;;6.82;;
67867;SDS011;54672;46.096;14.470;2024-03-22T03:37:52;19.48;;;7.10;;
67867;SDS011;54672;46.096;14.470;2024-03-22T03:40:17;21.83;;;6.85;;
67867;SDS011;54672;46.096;14.470;2024-03-22T03:42:42;16.33;;;6.20;;
67867;SDS011;54672;46.096;14.470;2024-03-22T03:45:08;18.25;;;7.63;;
67867;SDS011;54672;46.096;14.470;2024-03-22T03:47:34;24.33;;;8.45;;
67867;SDS011;54672;46.096;14.470;2024-03-22T03:49:59;19.77;;;6.55;;
67867;SDS011;54672;46.096;14.470;2024-03-22T03:52:24;20.80;;;7.13;;
67867;SDS011;54672;46.096;14.470;2024-03-22T03:54:50;23.95;;;7.30;;
67867;SDS011;54672;46.096;14.470;2024-03-22T03:57:15;15.90;;;6.60;;
67867;SDS011;54672;46.096;14.470;2024-03-22T03:59:41;19.83;;;7.28;;
67867;SDS011;54672;46.096;14.470;2024-03-22T04:02:06;17.58;;;7.10;;
67867;SDS011;54672;46.096;14.470;2024-03-22T04:04:32;16.83;;;7.05;;
67867;SDS011;54672;46.096;14.470;2024-03-22T04:06:57;19.65;;;7.32;;
67867;SDS011;54672;46.096;14.470;2024-03-22T04:09:23;17.15;;;6.93;;
67867;SDS011;54672;46.096;14.470;2024-03-22T04:11:48;15.50;;;5.93;;
67867;SDS011;54672;46.096;14.470;2024-03-22T04:14:14;19.30;;;7.85;;
67867;SDS011;54672;46.096;14.470;2024-03-22T04:16:39;18.23;;;7.13;;
67867;SDS011;54672;46.096;14.470;2024-03-22T04:19:05;17.70;;;6.78;;
67867;SDS011;54672;46.096;14.470;2024-03-22T04:21:31;17.45;;;6.35;;
67867;SDS011;54672;46.096;14.470;2024-03-22T04:23:56;16.45;;;6.15;;
67867;SDS011;54672;46.096;14.470;2024-03-22T04:26:22;20.83;;;6.63;;
67867;SDS011;54672;46.096;14.470;2024-03-22T04:28:48;17.63;;;6.00;;
67867;SDS011;54672;46.096;14.470;2024-03-22T04:31:13;16.38;;;6.88;;
67867;SDS011;54672;46.096;14.470;2024-03-22T04:33:39;19.20;;;6.22;;
67867;SDS011;54672;46.096;14.470;2024-03-22T04:36:05;16.52;;;6.10;;
67867;SDS011;54672;46.096;14.470;2024-03-22T04:38:31;16.15;;;6.82;;
67867;SDS011;54672;46.096;14.470;2024-03-22T04:40:57;20.00;;;7.07;;
67867;SDS011;54672;46.096;14.470;2024-03-22T04:43:23;18.23;;;6.10;;
67867;SDS011;54672;46.096;14.470;2024-03-22T04:45:49;15.38;;;6.28;;
67867;SDS011;54672;46.096;14.470;2024-03-22T04:48:19;18.83;;;6.28;;
67867;SDS011;54672;46.096;14.470;2024-03-22T04:50:45;19.02;;;6.47;;
67867;SDS011;54672;46.096;14.470;2024-03-22T04:53:12;13.43;;;5.80;;
67867;SDS011;54672;46.096;14.470;2024-03-22T04:55:38;14.30;;;5.53;;
67867;SDS011;54672;46.096;14.470;2024-03-22T04:58:03;19.23;;;6.57;;
67867;SDS011;54672;46.096;14.470;2024-03-22T05:00:29;17.38;;;6.07;;
67867;SDS011;54672;46.096;14.470;2024-03-22T05:02:55;23.45;;;6.55;;
67867;SDS011;54672;46.096;14.470;2024-03-22T05:05:20;15.50;;;6.15;;
67867;SDS011;54672;46.096;14.470;2024-03-22T05:07:46;19.40;;;6.68;;
67867;SDS011;54672;46.096;14.470;2024-03-22T05:10:11;21.55;;;6.28;;
67867;SDS011;54672;46.096;14.470;2024-03-22T05:12:37;27.63;;;7.95;;
67867;SDS011;54672;46.096;14.470;2024-03-22T05:15:03;25.55;;;6.78;;
67867;SDS011;54672;46.096;14.470;2024-03-22T05:17:29;22.17;;;6.60;;
67867;SDS011;54672;46.096;14.470;2024-03-22T05:19:57;22.27;;;6.82;;
67867;SDS011;54672;46.096;14.470;2024-03-22T05:22:25;19.33;;;5.80;;
67867;SDS011;54672;46.096;14.470;2024-03-22T05:24:51;19.10;;;6.03;;
67867;SDS011;54672;46.096;14.470;2024-03-22T05:27:17;24.92;;;6.60;;
67867;SDS011;54672;46.096;14.470;2024-03-22T05:29:43;12.98;;;5.78;;
67867;SDS011;54672;46.096;14.470;2024-03-22T05:32:08;15.18;;;4.88;;
67867;SDS011;54672;46.096;14.470;2024-03-22T05:34:34;16.63;;;6.20;;
67867;SDS011;54672;46.096;14.470;2024-03-22T05:37:00;17.20;;;5.85;;
67867;SDS011;54672;46.096;14.470;2024-03-22T05:39:26;14.00;;;5.80;;
67867;SDS011;54672;46.096;14.470;2024-03-22T05:41:52;15.90;;;5.93;;
67867;SDS011;54672;46.096;14.470;2024-03-22T05:44:18;14.30;;;5.80;;
67867;SDS011;54672;46.096;14.470;2024-03-22T05:46:43;14.55;;;6.90;;
67867;SDS011;54672;46.096;14.470;2024-03-22T05:49:08;22.55;;;7.97;;
67867;SDS011;54672;46.096;14.470;2024-03-22T05:51:34;23.33;;;8.32;;
67867;SDS011;54672;46.096;14.470;2024-03-22T05:53:59;15.88;;;6.75;;
67867;SDS011;54672;46.096;14.470;2024-03-22T05:56:25;16.23;;;6.80;;
67867;SDS011;54672;46.096;14.470;2024-03-22T05:58:50;17.05;;;5.90;;
67867;SDS011;54672;46.096;14.470;2024-03-22T06:01:16;15.80;;;6.07;;
67867;SDS011;54672;46.096;14.470;2024-03-22T06:03:41;15.18;;;5.10;;
67867;SDS011;54672;46.096;14.470;2024-03-22T06:06:07;18.05;;;6.32;;
67867;SDS011;54672;46.096;14.470;2024-03-22T06:08:32;16.15;;;5.97;;
67867;SDS011;54672;46.096;14.470;2024-03-22T06:10:59;12.75;;;5.68;;
67867;SDS011;54672;46.096;14.470;2024-03-22T06:13:25;13.93;;;6.80;;
67867;SDS011;54672;46.096;14.470;2024-03-22T06:15:50;13.43;;;5.45;;
67867;SDS011;54672;46.096;14.470;2024-03-22T06:18:16;14.95;;;5.88;;
67867;SDS011;54672;46.096;14.470;2024-03-22T06:20:42;14.38;;;6.05;;
67867;SDS011;54672;46.096;14.470;2024-03-22T06:23:08;14.52;;;6.22;;
67867;SDS011;54672;46.096;14.470;2024-03-22T06:25:34;15.30;;;5.57;;
67867;SDS011;54672;46.096;14.470;2024-03-22T06:28:00;12.35;;;5.88;;
67867;SDS011;54672;46.096;14.470;2024-03-22T06:30:26;13.07;;;6.07;;
67867;SDS011;54672;46.096;14.470;2024-03-22T06:32:52;10.18;;;4.53;;
67867;SDS011;54672;46.096;14.470;2024-03-22T06:35:18;12.45;;;5.20;;
67867;SDS011;54672;46.096;14.470;2024-03-22T06:37:43;13.40;;;5.57;;
67867;SDS011;54672;46.096;14.470;2024-03-22T06:40:09;11.02;;;4.90;;
67867;SDS011;54672;46.096;14.470;2024-03-22T06:42:35;13.20;;;5.05;;
67867;SDS011;54672;46.096;14.470;2024-03-22T06:45:01;10.65;;;4.82;;
67867;SDS011;54672;46.096;14.470;2024-03-22T06:47:27;9.82;;;5.10;;
67867;SDS011;54672;46.096;14.470;2024-03-22T06:49:53;13.35;;;5.05;;
67867;SDS011;54672;46.096;14.470;2024-03-22T06:52:19;14.10;;;5.28;;
67867;SDS011;54672;46.096;14.470;2024-03-22T06:54:45;16.88;;;6.20;;
67867;SDS011;54672;46.096;14.470;2024-03-22T06:57:10;17.42;;;6.75;;
67867;SDS011;54672;46.096;14.470;2024-03-22T06:59:36;16.27;;;6.30;;
67867;SDS011;54672;46.096;14.470;2024-03-22T07:02:01;14.15;;;6.40;;
67867;SDS011;54672;46.096;14.470;2024-03-22T07:04:27;12.95;;;5.40;;
67867;SDS011;54672;46.096;14.470;2024-03-22T07:06:52;12.68;;;5.20;;
67867;SDS011;54672;46.096;14.470;2024-03-22T07:09:18;11.43;;;5.63;;
67867;SDS011;54672;46.096;14.470;2024-03-22T07:11:43;11.30;;;5.45;;
67867;SDS011;54672;46.096;14.470;2024-03-22T07:14:09;13.35;;;6.38;;
67867;SDS011;54672;46.096;14.470;2024-03-22T07:16:34;15.25;;;5.78;;
67867;SDS011;54672;46.096;14.470;2024-03-22T07:19:02;13.18;;;5.68;;
67867;SDS011;54672;46.096;14.470;2024-03-22T07:21:28;24.80;;;6.13;;
67867;SDS011;54672;46.096;14.470;2024-03-22T07:23:54;22.02;;;5.38;;
67867;SDS011;54672;46.096;14.470;2024-03-22T07:26:19;18.50;;;5.07;;
67867;SDS011;54672;46.096;14.470;2024-03-22T07:28:45;13.10;;;5.93;;
67867;SDS011;54672;46.096;14.470;2024-03-22T07:31:10;21.33;;;6.05;;
67867;SDS011;54672;46.096;14.470;2024-03-22T07:33:36;15.75;;;5.88;;
67867;SDS011;54672;46.096;14.470;2024-03-22T07:36:06;16.92;;;5.70;;
67867;SDS011;54672;46.096;14.470;2024-03-22T07:38:31;25.73;;;6.68;;
67867;SDS011;54672;46.096;14.470;2024-03-22T07:40:57;25.45;;;6.55;;
67867;SDS011;54672;46.096;14.470;2024-03-22T07:43:23;21.58;;;6.20;;
67867;SDS011;54672;46.096;14.470;2024-03-22T07:45:48;13.88;;;5.95;;
67867;SDS011;54672;46.096;14.470;2024-03-22T07:48:14;23.35;;;6.22;;
67867;SDS011;54672;46.096;14.470;2024-03-22T07:50:40;34.38;;;6.60;;
67867;SDS011;54672;46.096;14.470;2024-03-22T07:53:05;19.67;;;6.57;;
67867;SDS011;54672;46.096;14.470;2024-03-22T07:55:31;13.63;;;6.75;;
67867;SDS011;54672;46.096;14.470;2024-03-22T07:57:57;21.48;;;6.65;;
67867;SDS011;54672;46.096;14.470;2024-03-22T08:00:22;18.23;;;6.78;;
67867;SDS011;54672;46.096;14.470;2024-03-22T08:02:50;24.15;;;6.78;;
67867;SDS011;54672;46.096;14.470;2024-03-22T08:05:16;22.50;;;6.95;;
67867;SDS011;54672;46.096;14.470;2024-03-22T08:07:41;18.42;;;6.47;;
67867;SDS011;54672;46.096;14.470;2024-03-22T08:10:08;18.13;;;6.85;;
67867;SDS011;54672;46.096;14.470;2024-03-22T08:12:34;17.45;;;6.72;;
67867;SDS011;54672;46.096;14.470;2024-03-22T08:14:59;16.50;;;6.88;;
67867;SDS011;54672;46.096;14.470;2024-03-22T08:17:25;15.88;;;6.78;;
67867;SDS011;54672;46.096;14.470;2024-03-22T08:19:50;15.20;;;6.53;;
67867;SDS011;54672;46.096;14.470;2024-03-22T08:22:16;22.70;;;7.38;;
67867;SDS011;54672;46.096;14.470;2024-03-22T08:24:41;21.20;;;7.72;;
67867;SDS011;54672;46.096;14.470;2024-03-22T08:27:06;17.95;;;6.63;;
67867;SDS011;54672;46.096;14.470;2024-03-22T08:29:32;12.90;;;5.65;;
67867;SDS011;54672;46.096;14.470;2024-03-22T08:31:57;15.50;;;7.05;;
67867;SDS011;54672;46.096;14.470;2024-03-22T08:34:23;19.63;;;7.10;;
67867;SDS011;54672;46.096;14.470;2024-03-22T08:36:48;18.88;;;7.35;;
67867;SDS011;54672;46.096;14.470;2024-03-22T08:39:14;17.00;;;7.28;;
67867;SDS011;54672;46.096;14.470;2024-03-22T08:41:40;13.93;;;6.90;;
67867;SDS011;54672;46.096;14.470;2024-03-22T08:44:06;16.17;;;6.93;;
67867;SDS011;54672;46.096;14.470;2024-03-22T08:46:32;17.83;;;7.55;;
67867;SDS011;54672;46.096;14.470;2024-03-22T08:48:57;14.85;;;6.95;;
67867;SDS011;54672;46.096;14.470;2024-03-22T08:51:23;17.75;;;7.57;;
67867;SDS011;54672;46.096;14.470;2024-03-22T08:53:48;15.82;;;7.40;;
67867;SDS011;54672;46.096;14.470;2024-03-22T08:56:14;17.63;;;7.45;;
67867;SDS011;54672;46.096;14.470;2024-03-22T08:58:39;14.48;;;6.88;;
67867;SDS011;54672;46.096;14.470;2024-03-22T09:01:05;14.40;;;6.60;;
67867;SDS011;54672;46.096;14.470;2024-03-22T09:03:31;17.80;;;7.97;;
67867;SDS011;54672;46.096;14.470;2024-03-22T09:05:57;14.75;;;7.90;;
67867;SDS011;54672;46.096;14.470;2024-03-22T09:08:23;13.77;;;7.47;;
67867;SDS011;54672;46.096;14.470;2024-03-22T09:10:48;17.23;;;7.93;;
67867;SDS011;54672;46.096;14.470;2024-03-22T09:13:13;14.32;;;6.72;;
67867;SDS011;54672;46.096;14.470;2024-03-22T09:15:39;14.93;;;7.28;;
67867;SDS011;54672;46.096;14.470;2024-03-22T09:18:05;17.63;;;8.15;;
67867;SDS011;54672;46.096;14.470;2024-03-22T09:20:31;17.23;;;8.50;;
67867;SDS011;54672;46.096;14.470;2024-03-22T09:22:57;11.68;;;6.97;;
67867;SDS011;54672;46.096;14.470;2024-03-22T09:25:25;17.17;;;7.55;;
67867;SDS011;54672;46.096;14.470;2024-03-22T09:27:52;14.48;;;7.88;;
67867;SDS011;54672;46.096;14.470;2024-03-22T09:30:17;14.82;;;8.02;;
67867;SDS011;54672;46.096;14.470;2024-03-22T09:32:43;17.02;;;8.57;;
67867;SDS011;54672;46.096;14.470;2024-03-22T09:35:09;15.88;;;8.02;;
67867;SDS011;54672;46.096;14.470;2024-03-22T09:37:35;16.42;;;8.10;;
67867;SDS011;54672;46.096;14.470;2024-03-22T09:40:01;15.23;;;7.57;;
67867;SDS011;54672;46.096;14.470;2024-03-22T09:42:32;13.55;;;7.40;;
67867;SDS011;54672;46.096;14.470;2024-03-22T09:44:58;13.07;;;7.32;;
67867;SDS011;54672;46.096;14.470;2024-03-22T09:47:24;14.68;;;6.88;;
67867;SDS011;54672;46.096;14.470;2024-03-22T09:49:50;15.63;;;8.18;;
67867;SDS011;54672;46.096;14.470;2024-03-22T09:52:16;15.15;;;7.72;;
67867;SDS011;54672;46.096;14.470;2024-03-22T09:54:45;13.38;;;7.10;;
67867;SDS011;54672;46.096;14.470;2024-03-22T09:57:14;16.40;;;7.95;;
67867;SDS011;54672;46.096;14.470;2024-03-22T09:59:43;19.55;;;9.23;;
67867;SDS011;54672;46.096;14.470;2024-03-22T10:02:11;17.52;;;8.45;;
67867;SDS011;54672;46.096;14.470;2024-03-22T10:04:40;15.23;;;7.72;;
67867;SDS011;54672;46.096;14.470;2024-03-22T10:07:06;16.67;;;8.35;;
67867;SDS011;54672;46.096;14.470;2024-03-22T10:09:33;16.80;;;7.63;;
67867;SDS011;54672;46.096;14.470;2024-03-22T10:11:58;15.38;;;7.75;;
67867;SDS011;54672;46.096;14.470;2024-03-22T10:14:24;18.02;;;7.97;;
67867;SDS011;54672;46.096;14.470;2024-03-22T10:16:53;16.30;;;8.90;;
67867;SDS011;54672;46.096;14.470;2024-03-22T10:19:22;18.52;;;9.20;;
67867;SDS011;54672;46.096;14.470;2024-03-22T10:22:03;17.53;;;9.03;;
67867;SDS011;54672;46.096;14.470;2024-03-22T10:24:29;19.67;;;9.25;;
67867;SDS011;54672;46.096;14.470;2024-03-22T10:26:55;17.80;;;8.30;;
67867;SDS011;54672;46.096;14.470;2024-03-22T10:29:21;19.08;;;9.15;;
67867;SDS011;54672;46.096;14.470;2024-03-22T10:31:47;17.02;;;9.18;;
67867;SDS011;54672;46.096;14.470;2024-03-22T10:34:16;19.05;;;8.80;;
67867;SDS011;54672;46.096;14.470;2024-03-22T10:36:43;17.45;;;9.68;;
67867;SDS011;54672;46.096;14.470;2024-03-22T10:39:10;18.45;;;9.00;;
67867;SDS011;54672;46.096;14.470;2024-03-22T10:41:38;16.63;;;9.05;;
67867;SDS011;54672;46.096;14.470;2024-03-22T10:44:04;21.77;;;9.55;;
67867;SDS011;54672;46.096;14.470;2024-03-22T10:46:30;17.17;;;8.48;;
67867;SDS011;54672;46.096;14.470;2024-03-22T10:48:58;16.63;;;8.15;;
67867;SDS011;54672;46.096;14.470;2024-03-22T10:51:25;17.50;;;8.85;;
67867;SDS011;54672;46.096;14.470;2024-03-22T10:53:52;18.20;;;9.00;;
67867;SDS011;54672;46.096;14.470;2024-03-22T10:56:19;23.08;;;9.30;;
67867;SDS011;54672;46.096;14.470;2024-03-22T10:58:46;19.55;;;10.05;;
67867;SDS011;54672;46.096;14.470;2024-03-22T11:01:22;17.25;;;9.15;;
67867;SDS011;54672;46.096;14.470;2024-03-22T11:03:48;17.05;;;9.02;;
67867;SDS011;54672;46.096;14.470;2024-03-22T11:06:17;22.67;;;8.80;;
67867;SDS011;54672;46.096;14.470;2024-03-22T11:08:43;17.33;;;8.80;;
67867;SDS011;54672;46.096;14.470;2024-03-22T11:11:12;17.30;;;9.18;;
67867;SDS011;54672;46.096;14.470;2024-03-22T11:13:40;20.30;;;9.07;;
67867;SDS011;54672;46.096;14.470;2024-03-22T11:16:06;19.85;;;8.68;;
67867;SDS011;54672;46.096;14.470;2024-03-22T11:18:34;19.73;;;8.75;;
67867;SDS011;54672;46.096;14.470;2024-03-22T11:20:59;18.73;;;8.20;;
67867;SDS011;54672;46.096;14.470;2024-03-22T11:23:25;19.23;;;8.05;;
67867;SDS011;54672;46.096;14.470;2024-03-22T11:25:50;14.30;;;7.45;;
67867;SDS011;54672;46.096;14.470;2024-03-22T11:28:16;16.35;;;7.80;;
67867;SDS011;54672;46.096;14.470;2024-03-22T11:30:42;14.68;;;7.05;;
67867;SDS011;54672;46.096;14.470;2024-03-22T11:33:08;15.40;;;7.15;;
67867;SDS011;54672;46.096;14.470;2024-03-22T11:35:33;12.85;;;6.25;;
67867;SDS011;54672;46.096;14.470;2024-03-22T11:37:59;12.77;;;6.68;;
67867;SDS011;54672;46.096;14.470;2024-03-22T11:40:25;13.35;;;6.82;;
67867;SDS011;54672;46.096;14.470;2024-03-22T11:42:51;13.38;;;7.15;;
67867;SDS011;54672;46.096;14.470;2024-03-22T11:45:19;14.20;;;6.55;;
67867;SDS011;54672;46.096;14.470;2024-03-22T11:47:46;13.32;;;6.68;;
67867;SDS011;54672;46.096;14.470;2024-03-22T11:50:12;15.45;;;7.30;;
67867;SDS011;54672;46.096;14.470;2024-03-22T11:52:42;11.57;;;6.07;;
67867;SDS011;54672;46.096;14.470;2024-03-22T11:55:12;13.07;;;6.57;;
67867;SDS011;54672;46.096;14.470;2024-03-22T11:57:38;12.65;;;6.40;;
67867;SDS011;54672;46.096;14.470;2024-03-22T12:00:04;10.45;;;6.05;;
67867;SDS011;54672;46.096;14.470;2024-03-22T12:02:35;11.75;;;6.07;;
67867;SDS011;54672;46.096;14.470;2024-03-22T12:05:01;12.95;;;5.18;;
67867;SDS011;54672;46.096;14.470;2024-03-22T12:07:28;14.43;;;5.53;;
67867;SDS011;54672;46.096;14.470;2024-03-22T12:09:53;10.85;;;5.38;;
67867;SDS011;54672;46.096;14.470;2024-03-22T12:12:20;10.60;;;5.72;;
67867;SDS011;54672;46.096;14.470;2024-03-22T12:14:47;10.00;;;4.93;;
67867;SDS011;54672;46.096;14.470;2024-03-22T12:17:12;9.77;;;4.82;;
67867;SDS011;54672;46.096;14.470;2024-03-22T12:19:38;7.63;;;4.60;;
67867;SDS011;54672;46.096;14.470;2024-03-22T12:22:03;9.18;;;4.20;;
67867;SDS011;54672;46.096;14.470;2024-03-22T12:24:31;9.55;;;4.55;;
67867;SDS011;54672;46.096;14.470;2024-03-22T12:26:57;8.57;;;4.47;;
67867;SDS011;54672;46.096;14.470;2024-03-22T12:29:22;8.75;;;4.82;;
67867;SDS011;54672;46.096;14.470;2024-03-22T12:31:49;11.52;;;4.93;;
67867;SDS011;54672;46.096;14.470;2024-03-22T12:34:15;8.48;;;4.72;;
67867;SDS011;54672;46.096;14.470;2024-03-22T12:36:40;8.73;;;4.20;;
67867;SDS011;54672;46.096;14.470;2024-03-22T12:39:06;8.15;;;3.92;;
67867;SDS011;54672;46.096;14.470;2024-03-22T12:41:31;6.95;;;4.25;;
67867;SDS011;54672;46.096;14.470;2024-03-22T12:43:58;5.90;;;3.10;;
67867;SDS011;54672;46.096;14.470;2024-03-22T12:46:24;7.82;;;3.83;;
67867;SDS011;54672;46.096;14.470;2024-03-22T12:48:50;8.13;;;3.80;;
67867;SDS011;54672;46.096;14.470;2024-03-22T12:51:15;5.35;;;2.50;;
67867;SDS011;54672;46.096;14.470;2024-03-22T12:53:41;3.97;;;2.40;;
67867;SDS011;54672;46.096;14.470;2024-03-22T12:56:06;3.42;;;2.00;;
67867;SDS011;54672;46.096;14.470;2024-03-22T12:58:32;3.17;;;2.00;;
67867;SDS011;54672;46.096;14.470;2024-03-22T13:00:57;4.10;;;2.13;;
67867;SDS011;54672;46.096;14.470;2024-03-22T13:03:25;5.88;;;3.20;;
67867;SDS011;54672;46.096;14.470;2024-03-22T13:05:50;5.15;;;2.42;;
67867;SDS011;54672;46.096;14.470;2024-03-22T13:08:15;4.95;;;2.60;;
67867;SDS011;54672;46.096;14.470;2024-03-22T13:10:41;3.63;;;2.03;;
67867;SDS011;54672;46.096;14.470;2024-03-22T13:13:09;3.05;;;1.63;;
67867;SDS011;54672;46.096;14.470;2024-03-22T13:15:35;3.72;;;1.92;;
67867;SDS011;54672;46.096;14.470;2024-03-22T13:18:03;3.45;;;2.20;;
67867;SDS011;54672;46.096;14.470;2024-03-22T13:20:29;2.83;;;1.92;;
67867;SDS011;54672;46.096;14.470;2024-03-22T13:22:54;4.05;;;1.90;;
67867;SDS011;54672;46.096;14.470;2024-03-22T13:25:20;3.17;;;1.83;;
67867;SDS011;54672;46.096;14.470;2024-03-22T13:27:45;3.72;;;1.88;;
67867;SDS011;54672;46.096;14.470;2024-03-22T13:30:11;4.15;;;2.35;;
67867;SDS011;54672;46.096;14.470;2024-03-22T13:32:37;3.53;;;2.05;;
67867;SDS011;54672;46.096;14.470;2024-03-22T13:35:04;3.17;;;1.77;;
67867;SDS011;54672;46.096;14.470;2024-03-22T13:37:30;4.65;;;2.00;;
67867;SDS011;54672;46.096;14.470;2024-03-22T13:39:56;2.80;;;1.65;;
67867;SDS011;54672;46.096;14.470;2024-03-22T13:42:22;6.18;;;2.08;;
67867;SDS011;54672;46.096;14.470;2024-03-22T13:44:47;2.28;;;1.77;;
67867;SDS011;54672;46.096;14.470;2024-03-22T13:47:13;3.20;;;1.60;;
67867;SDS011;54672;46.096;14.470;2024-03-22T13:49:38;3.45;;;1.67;;
67867;SDS011;54672;46.096;14.470;2024-03-22T13:52:06;2.97;;;1.65;;
67867;SDS011;54672;46.096;14.470;2024-03-22T13:54:32;2.90;;;1.88;;
67867;SDS011;54672;46.096;14.470;2024-03-22T13:56:58;3.10;;;1.70;;
67867;SDS011;54672;46.096;14.470;2024-03-22T13:59:23;5.32;;;1.70;;
67867;SDS011;54672;46.096;14.470;2024-03-22T14:01:49;3.22;;;1.48;;
67867;SDS011;54672;46.096;14.470;2024-03-22T14:04:15;2.97;;;1.95;;
67867;SDS011;54672;46.096;14.470;2024-03-22T14:06:40;3.05;;;1.65;;
67867;SDS011;54672;46.096;14.470;2024-03-22T14:09:07;1.92;;;1.30;;
67867;SDS011;54672;46.096;14.470;2024-03-22T14:11:35;3.33;;;1.50;;
67867;SDS011;54672;46.096;14.470;2024-03-22T14:14:01;3.45;;;1.60;;
67867;SDS011;54672;46.096;14.470;2024-03-22T14:16:27;2.58;;;1.60;;